PT-0060 weather

Pista de Montevil (Batalha)
Alcácer do Sal, Setúbal District, Portugal

Public forecast

Using degrees Celsius for public forecast. Weather courtesy of forecast.io.

Closest aviation weather report (METAR) to Pista de Montevil (Batalha)

Closest report is Montijo Air Base, 28.4 nm (52.6 km) NW. Retrieved 2019/12/11 05:00 UTC (42 minutes ago):

LPMT 110500Z 23004KT 9000 SCT015 11/10 Q1025

Closest aviation forecast (TAF) to Pista de Montevil (Batalha)

Closest forecast is Montijo Air Base, 28.4 nm (52.6 km) NW. Retrieved 2019-12-11 00:12 UTC (5 hours ago):

TAF LPMT 102307Z 1100/1124 VRB02KT 6000 SCT018 PROB40 1100/1103 1800 BR BKN006 BECMG 1103/1105 25008KT 5000 -DZRA SCT008 BKN016 TEMPO 1103/1108 2500 DZRA BR BKN006 BKN012 PROB30 TEMPO 1105/1107 2000 DZRA BR BKN004 BKN008 BECMG 1107/1109 35012KT 9999 NSW SCT016 TEMPO 1108/1117 35015G25KT BECMG 1117/1120 34008KT